createdAt,value
2018-03-28T00:00:06.726Z,99.99
2018-03-28T00:01:06.728Z,99.99
2018-03-28T00:02:06.711Z,99.99
2018-03-28T00:03:06.702Z,99.99
2018-03-28T00:04:06.694Z,99.99
2018-03-28T00:05:06.689Z,99.99
2018-03-28T00:06:06.678Z,99.99
2018-03-28T00:07:06.670Z,99.99
2018-03-28T00:08:06.663Z,99.99
2018-03-28T00:09:06.654Z,99.99
2018-03-28T00:10:06.644Z,99.99
2018-03-28T00:11:06.637Z,99.99
2018-03-28T00:12:06.630Z,99.99
2018-03-28T00:13:06.619Z,99.99
2018-03-28T00:14:06.613Z,99.99
2018-03-28T00:15:06.609Z,99.99
2018-03-28T00:16:06.596Z,99.99
2018-03-28T00:17:06.585Z,99.99
2018-03-28T00:18:06.590Z,99.99
2018-03-28T00:19:06.592Z,99.99
2018-03-28T00:20:06.563Z,99.99
2018-03-28T00:21:06.583Z,99.99
2018-03-28T00:22:06.543Z,99.99
2018-03-28T00:23:06.553Z,99.99
2018-03-28T00:24:06.530Z,99.99
2018-03-28T00:25:06.529Z,99.99
2018-03-28T00:26:06.514Z,99.99
2018-03-28T00:27:06.515Z,99.99
2018-03-28T00:28:06.501Z,99.99
2018-03-28T00:29:06.534Z,99.99
2018-03-28T00:30:06.496Z,99.99
2018-03-28T00:31:06.474Z,99.99
2018-03-28T00:32:06.471Z,99.99
2018-03-28T00:33:06.457Z,99.99
2018-03-28T00:34:06.450Z,99.99
2018-03-28T00:35:06.447Z,99.99
2018-03-28T00:36:06.433Z,99.99
2018-03-28T00:37:06.426Z,99.99
2018-03-28T00:38:06.425Z,99.99
2018-03-28T00:39:06.418Z,99.99
2018-03-28T00:40:06.399Z,99.99
2018-03-28T00:41:06.396Z,99.99
2018-03-28T00:42:06.405Z,99.99
2018-03-28T00:43:06.376Z,99.99
2018-03-28T00:44:06.368Z,99.99
2018-03-28T00:45:06.362Z,99.99
2018-03-28T00:46:06.359Z,99.99
2018-03-28T00:47:06.348Z,99.99
2018-03-28T00:48:06.334Z,99.99
2018-03-28T00:49:06.332Z,99.99
2018-03-28T00:50:06.323Z,99.99
2018-03-28T00:51:06.313Z,99.99
2018-03-28T00:52:06.306Z,99.99
2018-03-28T00:53:06.297Z,99.99
2018-03-28T00:54:06.285Z,99.99
2018-03-28T00:55:06.293Z,99.99
2018-03-28T00:56:06.273Z,99.99
2018-03-28T00:57:06.266Z,99.99
2018-03-28T00:58:06.260Z,99.99
2018-03-28T00:59:06.247Z,99.99
2018-03-28T01:00:06.240Z,99.99
2018-03-28T01:01:06.250Z,99.99
2018-03-28T01:02:06.244Z,99.99
2018-03-28T01:03:06.219Z,99.99
2018-03-28T01:04:06.213Z,99.99
2018-03-28T01:05:06.248Z,99.99
2018-03-28T01:06:06.198Z,99.99
2018-03-28T01:07:06.187Z,99.99
2018-03-28T01:08:06.197Z,99.99
2018-03-28T01:09:06.183Z,99.99
2018-03-28T01:10:06.167Z,99.99
2018-03-28T01:11:06.166Z,99.99
2018-03-28T01:12:06.145Z,99.99
2018-03-28T01:13:06.152Z,99.99
2018-03-28T01:14:06.132Z,99.99
2018-03-28T01:15:06.132Z,99.99
2018-03-28T01:16:06.116Z,99.99
2018-03-28T01:17:06.109Z,99.99
2018-03-28T01:18:06.100Z,99.99
2018-03-28T01:19:06.092Z,99.99
2018-03-28T01:20:06.083Z,99.99
2018-03-28T01:21:06.077Z,99.99
2018-03-28T01:22:06.073Z,99.99
2018-03-28T01:23:06.067Z,99.99
2018-03-28T01:24:06.061Z,99.99
2018-03-28T01:25:06.043Z,99.99
2018-03-28T01:26:06.038Z,99.99
2018-03-28T01:27:06.029Z,99.99
2018-03-28T01:28:06.044Z,99.99
2018-03-28T01:29:06.008Z,99.99
2018-03-28T01:30:06.004Z,99.99
2018-03-28T01:31:06.000Z,99.99
2018-03-28T02:04:15.198Z,99.99
2018-03-28T02:05:15.112Z,99.99
2018-03-28T02:07:08.024Z,99.99
2018-03-28T02:08:08.011Z,99.99
2018-03-28T02:10:00.889Z,99.99
2018-03-28T02:11:00.859Z,99.99
2018-03-28T02:12:53.780Z,99.99
2018-03-28T02:13:53.759Z,99.99
2018-03-28T02:15:46.648Z,99.99
2018-03-28T02:16:46.655Z,99.99
2018-03-28T02:18:39.535Z,99.99
2018-03-28T02:19:39.519Z,99.99
2018-03-28T02:21:32.484Z,99.99
2018-03-28T02:22:32.460Z,99.99
2018-03-28T02:23:32.469Z,99.99
2018-03-28T02:24:32.445Z,99.99
2018-03-28T02:25:32.481Z,99.99
2018-03-28T02:26:32.431Z,99.99
2018-03-28T02:27:32.418Z,99.99
2018-03-28T02:28:32.406Z,99.99
2018-03-28T02:29:32.406Z,99.99
2018-03-28T02:30:32.398Z,99.99
2018-03-28T02:31:32.391Z,99.99
2018-03-28T02:32:32.381Z,99.99
2018-03-28T02:33:32.373Z,99.99
2018-03-28T02:34:32.366Z,99.99
2018-03-28T02:35:32.360Z,99.99
2018-03-28T02:36:32.351Z,99.99
2018-03-28T02:37:32.341Z,99.99
2018-03-28T02:38:32.335Z,99.99
2018-03-28T02:39:32.329Z,99.99
2018-03-28T02:40:32.340Z,99.99
2018-03-28T02:41:32.309Z,99.99
2018-03-28T02:42:32.306Z,99.99
2018-03-28T02:43:32.301Z,99.99
2018-03-28T02:44:32.311Z,99.99
2018-03-28T02:45:32.285Z,99.99
2018-03-28T02:46:32.279Z,99.99
2018-03-28T02:47:32.265Z,99.99
2018-03-28T02:48:32.264Z,99.99
2018-03-28T02:49:32.260Z,99.99
2018-03-28T02:50:32.247Z,99.99
2018-03-28T02:51:32.252Z,99.99
2018-03-28T02:52:32.237Z,99.99
2018-03-28T02:53:32.222Z,99.99
2018-03-28T02:54:32.342Z,99.99
2018-03-28T02:55:32.218Z,99.99
2018-03-28T02:56:32.205Z,99.99
2018-03-28T02:57:32.191Z,99.99
2018-03-28T02:58:32.205Z,99.99
2018-03-28T02:59:32.180Z,99.99
2018-03-28T03:00:32.172Z,99.99
2018-03-28T03:01:32.171Z,99.99
2018-03-28T03:02:32.173Z,99.99
2018-03-28T03:03:32.150Z,99.99
2018-03-28T03:04:32.148Z,99.99
2018-03-28T03:05:32.204Z,99.99
2018-03-28T03:06:32.141Z,99.99
2018-03-28T03:07:32.131Z,99.99
2018-03-28T03:08:32.117Z,99.99
2018-03-28T03:09:32.113Z,99.99
2018-03-28T03:10:32.104Z,99.99
2018-03-28T03:11:32.095Z,99.99
2018-03-28T03:12:32.090Z,99.99
2018-03-28T03:13:32.085Z,99.99
2018-03-28T03:14:33.488Z,99.99
2018-03-28T03:15:32.109Z,99.99
2018-03-28T03:16:32.065Z,99.99
2018-03-28T03:17:32.056Z,99.99
2018-03-28T03:18:32.042Z,99.99
2018-03-28T03:19:32.033Z,99.99
2018-03-28T03:20:32.036Z,99.99
2018-03-28T03:21:32.024Z,99.99
2018-03-28T03:22:32.019Z,99.99
2018-03-28T03:23:32.016Z,99.99
2018-03-28T03:24:32.002Z,99.99
2018-03-28T03:25:31.999Z,99.99
2018-03-28T03:26:31.989Z,99.99
2018-03-28T03:27:31.986Z,99.99
2018-03-28T03:28:31.976Z,99.99
2018-03-28T03:29:31.972Z,99.99
2018-03-28T03:30:31.962Z,99.99
2018-03-28T03:31:31.956Z,99.99
2018-03-28T03:32:31.947Z,99.99
2018-03-28T03:33:31.940Z,99.99
2018-03-28T03:34:31.930Z,99.99
2018-03-28T03:35:31.933Z,99.99
2018-03-28T03:36:31.915Z,99.99
2018-03-28T03:37:31.913Z,99.99
2018-03-28T03:38:31.907Z,99.99
2018-03-28T03:39:31.901Z,99.99
2018-03-28T03:40:31.896Z,99.99
2018-03-28T03:41:31.887Z,99.99
2018-03-28T03:42:31.880Z,99.99
2018-03-28T03:43:31.877Z,99.99
2018-03-28T03:44:31.864Z,99.99
2018-03-28T03:45:31.863Z,99.99
2018-03-28T03:46:31.866Z,99.99
2018-03-28T03:47:31.842Z,99.99
2018-03-28T03:48:31.859Z,99.99
2018-03-28T03:49:31.831Z,99.99
2018-03-28T03:50:31.824Z,99.99
2018-03-28T03:51:31.819Z,99.99
2018-03-28T03:52:31.809Z,99.99
2018-03-28T03:53:31.803Z,99.99
2018-03-28T03:54:31.807Z,99.99
2018-03-28T03:55:31.810Z,99.99
2018-03-28T03:56:31.781Z,99.99
2018-03-28T03:57:31.772Z,99.99
2018-03-28T03:58:31.766Z,99.99
2018-03-28T03:59:31.760Z,99.99
2018-03-28T04:00:31.756Z,99.99
2018-03-28T04:01:31.750Z,99.99
2018-03-28T04:02:31.802Z,99.99
2018-03-28T04:03:31.740Z,99.99
2018-03-28T04:04:31.744Z,99.99
2018-03-28T04:05:31.745Z,99.99
2018-03-28T04:06:31.717Z,99.99
2018-03-28T04:07:31.713Z,99.99
2018-03-28T04:08:31.703Z,99.99
2018-03-28T04:09:31.696Z,99.99
2018-03-28T04:10:31.686Z,99.99
2018-03-28T04:11:31.704Z,99.99
2018-03-28T04:12:31.677Z,99.99
2018-03-28T04:13:31.663Z,99.99
2018-03-28T04:14:31.658Z,99.99
2018-03-28T04:15:31.648Z,99.99
2018-03-28T04:16:31.647Z,99.99
2018-03-28T04:17:31.634Z,99.99
2018-03-28T04:18:31.630Z,99.99
2018-03-28T04:19:31.634Z,99.99
2018-03-28T04:20:31.616Z,99.99
2018-03-28T04:21:31.603Z,99.99
2018-03-28T04:22:31.603Z,99.99
2018-03-28T04:23:31.593Z,99.99
2018-03-28T04:24:31.587Z,99.99
2018-03-28T04:25:31.580Z,99.99
2018-03-28T04:26:31.563Z,99.99
2018-03-28T04:27:31.571Z,99.99
2018-03-28T04:28:31.559Z,99.99
2018-03-28T04:29:31.555Z,99.99
2018-03-28T04:30:31.545Z,99.99
2018-03-28T04:31:31.538Z,99.99
2018-03-28T04:32:31.534Z,99.99
2018-03-28T04:33:31.527Z,99.99
2018-03-28T04:34:31.517Z,99.99
2018-03-28T04:35:31.510Z,99.99
2018-03-28T04:36:31.500Z,99.99
2018-03-28T04:37:31.507Z,99.99
2018-03-28T04:38:31.491Z,99.99
2018-03-28T04:39:31.487Z,99.99
2018-03-28T04:40:31.473Z,99.99
2018-03-28T04:41:31.469Z,99.99
2018-03-28T04:42:31.458Z,99.99
2018-03-28T04:43:31.454Z,99.99
2018-03-28T04:44:31.453Z,99.99
2018-03-28T04:45:31.441Z,99.99
2018-03-28T04:46:31.432Z,99.99
2018-03-28T04:47:31.433Z,99.99
2018-03-28T04:48:31.421Z,99.99
2018-03-28T04:49:31.412Z,99.99
2018-03-28T04:50:31.408Z,99.99
2018-03-28T04:51:31.397Z,99.99
2018-03-28T04:52:31.394Z,99.99
2018-03-28T04:53:31.387Z,99.99
2018-03-28T04:54:31.378Z,99.99
2018-03-28T04:55:31.372Z,99.99
2018-03-28T04:56:31.363Z,99.99
2018-03-28T04:57:31.357Z,99.99
2018-03-28T04:58:31.351Z,99.99
2018-03-28T04:59:31.344Z,99.99
2018-03-28T05:00:31.335Z,99.99
2018-03-28T05:01:31.355Z,99.99
2018-03-28T05:02:31.364Z,99.99
2018-03-28T05:03:31.314Z,99.99
2018-03-28T05:04:31.311Z,99.99
2018-03-28T05:05:31.309Z,99.99
2018-03-28T05:06:31.294Z,99.99
2018-03-28T05:07:31.295Z,99.99
2018-03-28T05:08:31.281Z,99.99
2018-03-28T05:09:31.272Z,99.99
2018-03-28T05:10:31.268Z,99.99
2018-03-28T05:11:31.265Z,99.97
2018-03-28T05:12:31.248Z,99.40
2018-03-28T05:13:31.245Z,99.68
2018-03-28T05:14:31.241Z,99.40
2018-03-28T05:15:31.242Z,99.99
2018-03-28T05:16:31.227Z,99.99
2018-03-28T05:17:31.216Z,99.97
2018-03-28T05:18:31.235Z,99.87
2018-03-28T05:19:31.206Z,99.40
2018-03-28T05:20:31.197Z,99.99
2018-03-28T05:21:31.194Z,99.99
2018-03-28T05:22:31.196Z,99.99
2018-03-28T05:23:31.181Z,99.99
2018-03-28T05:24:31.174Z,99.99
2018-03-28T05:25:31.165Z,99.99
2018-03-28T05:26:31.166Z,99.99
2018-03-28T05:27:31.208Z,99.30
2018-03-28T05:28:31.147Z,99.87
2018-03-28T05:29:31.135Z,99.87
2018-03-28T05:30:31.145Z,99.30
2018-03-28T05:31:31.121Z,99.21
2018-03-28T05:32:31.119Z,99.21
2018-03-28T05:33:31.111Z,99.40
2018-03-28T05:34:31.153Z,99.21
2018-03-28T05:35:31.097Z,99.40
2018-03-28T05:36:31.088Z,99.58
2018-03-28T05:37:31.080Z,99.68
2018-03-28T05:38:31.075Z,98.83
2018-03-28T05:39:31.074Z,98.83
2018-03-28T05:40:31.063Z,98.73
2018-03-28T05:41:31.054Z,99.02
2018-03-28T05:42:31.048Z,98.64
2018-03-28T05:43:31.041Z,98.26
2018-03-28T05:44:31.037Z,98.07
2018-03-28T05:45:31.034Z,97.60
2018-03-28T05:46:31.021Z,97.69
2018-03-28T05:47:31.016Z,97.78
2018-03-28T05:48:31.006Z,97.97
2018-03-28T05:49:31.014Z,97.22
2018-03-28T05:50:31.002Z,97.97
2018-03-28T05:51:30.998Z,97.78
2018-03-28T05:52:30.975Z,97.60
2018-03-28T05:53:31.016Z,97.02
2018-03-28T05:54:31.016Z,97.41
2018-03-28T05:55:30.998Z,97.64
2018-03-28T05:56:30.958Z,97.50
2018-03-28T05:57:30.951Z,97.17
2018-03-28T05:58:30.941Z,97.17
2018-03-28T05:59:30.940Z,97.36
2018-03-28T06:00:30.929Z,96.79
2018-03-28T06:01:30.928Z,96.88
2018-03-28T06:02:30.919Z,96.41
2018-03-28T06:03:30.916Z,96.50
2018-03-28T06:04:30.905Z,96.88
2018-03-28T06:05:30.899Z,96.79
2018-03-28T06:06:30.890Z,96.50
2018-03-28T06:07:30.913Z,96.79
2018-03-28T06:08:30.886Z,96.50
2018-03-28T06:09:30.878Z,96.60
2018-03-28T06:10:30.869Z,96.50
2018-03-28T06:11:30.863Z,96.60
2018-03-28T06:12:30.866Z,96.79
2018-03-28T06:13:30.845Z,96.12
2018-03-28T06:14:30.850Z,95.94
2018-03-28T06:15:30.845Z,96.22
2018-03-28T06:16:30.835Z,96.03
2018-03-28T06:17:30.835Z,96.22
2018-03-28T06:18:30.868Z,96.03
2018-03-28T06:19:30.816Z,95.84
2018-03-28T06:20:30.810Z,95.84
2018-03-28T06:21:30.864Z,95.94
2018-03-28T06:22:30.794Z,96.12
2018-03-28T06:23:30.791Z,95.65
2018-03-28T06:24:30.786Z,95.94
2018-03-28T06:25:30.780Z,96.03
2018-03-28T06:26:30.780Z,95.65
2018-03-28T06:27:30.770Z,96.12
2018-03-28T06:28:30.762Z,96.03
2018-03-28T06:29:30.756Z,95.65
2018-03-28T06:30:30.760Z,95.17
2018-03-28T06:31:30.746Z,96.22
2018-03-28T06:32:30.750Z,95.94
2018-03-28T06:33:30.737Z,96.03
2018-03-28T06:34:30.738Z,95.84
2018-03-28T06:35:30.731Z,95.94
2018-03-28T06:36:30.725Z,95.84
2018-03-28T06:37:30.716Z,95.65
2018-03-28T06:38:30.709Z,96.12
2018-03-28T06:39:30.704Z,96.12
2018-03-28T06:40:30.695Z,96.03
2018-03-28T06:41:30.696Z,95.94
2018-03-28T06:42:30.689Z,95.08
2018-03-28T06:43:30.681Z,95.08
2018-03-28T06:44:30.674Z,95.36
2018-03-28T06:45:30.671Z,95.08
2018-03-28T06:46:30.659Z,95.36
2018-03-28T06:47:30.655Z,95.27
2018-03-28T06:48:30.649Z,94.89
2018-03-28T06:49:30.645Z,95.36
2018-03-28T06:50:30.643Z,95.27
2018-03-28T06:51:30.632Z,95.08
2018-03-28T06:52:30.627Z,95.08
2018-03-28T06:53:30.628Z,94.79
2018-03-28T06:54:30.616Z,95.32
2018-03-28T06:55:30.613Z,94.79
2018-03-28T06:56:30.611Z,95.22
2018-03-28T06:57:30.597Z,94.84
2018-03-28T06:58:30.589Z,94.84
2018-03-28T06:59:30.593Z,95.12
2018-03-28T07:00:30.578Z,94.65
2018-03-28T07:01:30.579Z,95.03
2018-03-28T07:02:30.576Z,95.51
2018-03-28T07:03:30.562Z,94.98
2018-03-28T07:04:30.563Z,94.79
2018-03-28T07:05:30.559Z,95.75
2018-03-28T07:06:30.558Z,95.08
2018-03-28T07:07:30.598Z,95.36
2018-03-28T07:08:30.570Z,95.08
2018-03-28T07:09:30.540Z,94.89
2018-03-28T07:10:30.532Z,95.22
2018-03-28T07:11:30.532Z,96.08
2018-03-28T07:12:30.541Z,95.79
2018-03-28T07:13:30.523Z,97.31
2018-03-28T07:14:30.525Z,95.84
2018-03-28T07:15:30.515Z,95.75
2018-03-28T07:16:30.515Z,95.22
2018-03-28T07:17:30.506Z,95.98
2018-03-28T07:18:30.504Z,95.98
2018-03-28T07:19:30.502Z,95.22
2018-03-28T07:20:30.499Z,96.03
2018-03-28T07:21:30.494Z,96.17
2018-03-28T07:22:30.492Z,95.60
2018-03-28T07:23:30.491Z,94.93
2018-03-28T07:24:30.486Z,96.08
2018-03-28T07:25:30.485Z,95.79
2018-03-28T07:26:30.482Z,94.74
2018-03-28T07:27:30.475Z,96.08
2018-03-28T07:28:30.472Z,96.17
2018-03-28T07:29:30.466Z,96.08
2018-03-28T07:30:30.465Z,95.22
2018-03-28T07:31:30.465Z,94.84
2018-03-28T07:32:30.460Z,95.89
2018-03-28T07:33:30.458Z,95.89
2018-03-28T07:34:30.456Z,94.84
2018-03-28T07:35:30.448Z,95.03
2018-03-28T07:36:30.445Z,96.17
2018-03-28T07:37:30.442Z,95.79
2018-03-28T07:38:30.441Z,95.79
2018-03-28T07:39:30.428Z,95.03
2018-03-28T07:40:30.497Z,94.74
2018-03-28T07:41:30.430Z,95.98
2018-03-28T07:42:30.424Z,95.22
2018-03-28T07:43:30.426Z,94.93
2018-03-28T07:44:30.418Z,95.32
2018-03-28T07:45:30.420Z,96.36
2018-03-28T07:46:30.451Z,95.12
2018-03-28T07:47:30.421Z,95.03
2018-03-28T07:48:30.408Z,95.51
2018-03-28T07:49:30.406Z,95.12
2018-03-28T07:50:30.402Z,95.22
2018-03-28T07:51:30.416Z,95.51
2018-03-28T07:52:30.392Z,94.93
2018-03-28T07:53:30.394Z,94.93
2018-03-28T07:54:30.385Z,95.12
2018-03-28T07:55:30.385Z,95.17
2018-03-28T07:56:30.379Z,95.27
2018-03-28T07:57:30.378Z,94.79
2018-03-28T07:58:30.430Z,96.31
2018-03-28T07:59:30.393Z,94.51
2018-03-28T08:00:30.381Z,95.27
2018-03-28T08:01:30.373Z,94.98
2018-03-28T08:02:30.370Z,94.89
2018-03-28T08:03:30.362Z,94.98
2018-03-28T08:04:30.350Z,94.60
2018-03-28T08:05:30.354Z,94.03
2018-03-28T08:06:30.351Z,94.79
2018-03-28T08:07:30.341Z,94.51
2018-03-28T08:08:30.352Z,94.98
2018-03-28T08:09:30.367Z,94.27
2018-03-28T08:10:30.324Z,94.93
2018-03-28T08:11:30.324Z,94.03
2018-03-28T08:12:30.314Z,94.03
2018-03-28T08:13:30.314Z,94.42
2018-03-28T08:14:30.305Z,94.22
2018-03-28T08:15:30.313Z,94.03
2018-03-28T08:16:30.302Z,94.60
2018-03-28T08:17:30.296Z,94.03
2018-03-28T08:18:30.299Z,94.79
2018-03-28T08:19:30.289Z,94.60
2018-03-28T08:20:30.284Z,94.13
2018-03-28T08:21:30.280Z,94.03
2018-03-28T08:22:30.274Z,94.70
2018-03-28T08:23:30.274Z,93.75
2018-03-28T08:24:30.264Z,94.22
2018-03-28T08:25:30.260Z,94.79
2018-03-28T08:26:30.276Z,93.75
2018-03-28T08:27:30.252Z,93.75
2018-03-28T08:28:30.281Z,94.03
2018-03-28T08:29:30.247Z,94.03
2018-03-28T08:30:30.242Z,93.89
2018-03-28T08:31:30.237Z,93.94
2018-03-28T08:32:30.233Z,93.27
2018-03-28T08:33:30.227Z,93.27
2018-03-28T08:34:30.228Z,93.46
2018-03-28T08:35:30.218Z,93.46
2018-03-28T08:36:30.214Z,94.03
2018-03-28T08:37:30.213Z,94.03
2018-03-28T08:38:30.215Z,93.94
2018-03-28T08:39:30.200Z,93.37
2018-03-28T08:40:30.197Z,93.27
2018-03-28T08:41:30.190Z,93.70
2018-03-28T08:42:30.189Z,94.08
2018-03-28T08:43:30.222Z,93.94
2018-03-28T08:44:30.181Z,93.94
2018-03-28T08:45:30.182Z,93.74
2018-03-28T08:46:30.170Z,95.08
2018-03-28T08:47:30.171Z,94.22
2018-03-28T08:48:30.176Z,94.03
2018-03-28T08:49:30.174Z,93.98
2018-03-28T08:50:30.173Z,93.94
2018-03-28T08:51:30.201Z,94.03
2018-03-28T08:52:30.148Z,94.18
2018-03-28T08:53:30.154Z,93.41
2018-03-28T08:54:30.163Z,94.74
2018-03-28T08:55:30.141Z,93.79
2018-03-28T08:56:30.138Z,94.08
2018-03-28T08:57:30.137Z,93.60
2018-03-28T08:58:30.153Z,93.98
2018-03-28T08:59:30.128Z,93.51
2018-03-28T09:00:30.128Z,94.37
2018-03-28T09:01:30.124Z,93.51
2018-03-28T09:02:30.120Z,94.27
2018-03-28T09:03:30.118Z,93.60
2018-03-28T09:04:30.112Z,93.60
2018-03-28T09:05:30.111Z,93.51
2018-03-28T09:06:30.106Z,94.22
2018-03-28T09:07:30.102Z,94.51
2018-03-28T09:08:30.099Z,94.22
2018-03-28T09:09:30.095Z,94.13
2018-03-28T09:10:30.095Z,93.84
2018-03-28T09:11:30.097Z,93.94
2018-03-28T09:12:30.086Z,94.13
2018-03-28T09:13:30.089Z,94.18
2018-03-28T09:14:30.083Z,94.32
2018-03-28T09:15:30.080Z,93.98
2018-03-28T09:16:30.076Z,94.08
2018-03-28T09:17:30.071Z,94.27
2018-03-28T09:18:30.071Z,93.60
2018-03-28T09:19:30.066Z,94.93
2018-03-28T09:20:30.059Z,94.93
2018-03-28T09:21:30.058Z,94.18
2018-03-28T09:22:30.055Z,94.46
2018-03-28T09:23:30.053Z,94.32
2018-03-28T09:24:30.045Z,94.13
2018-03-28T09:25:30.046Z,95.27
2018-03-28T09:26:30.066Z,94.42
2018-03-28T09:27:30.042Z,95.65
2018-03-28T09:28:30.036Z,94.89
2018-03-28T09:29:30.035Z,94.32
2018-03-28T09:30:30.031Z,94.13
2018-03-28T09:31:30.038Z,94.70
2018-03-28T09:32:30.023Z,94.13
2018-03-28T09:33:30.026Z,94.22
2018-03-28T09:34:30.020Z,95.36
2018-03-28T09:35:30.017Z,94.13
2018-03-28T09:36:30.006Z,94.60
2018-03-28T09:37:30.009Z,93.84
2018-03-28T09:38:30.009Z,94.13
2018-03-28T09:39:30.005Z,94.89
2018-03-28T09:40:30.007Z,94.79
2018-03-28T09:41:29.997Z,94.42
2018-03-28T09:42:29.995Z,94.98
2018-03-28T09:43:29.994Z,94.51
2018-03-28T09:44:30.003Z,94.03
2018-03-28T09:45:29.990Z,95.08
2018-03-28T09:46:29.984Z,94.22
2018-03-28T09:47:29.983Z,93.46
2018-03-28T09:48:29.978Z,94.03
2018-03-28T09:49:29.977Z,94.13
2018-03-28T09:50:29.973Z,94.65
2018-03-28T09:51:29.970Z,94.74
2018-03-28T09:52:29.964Z,93.94
2018-03-28T09:53:29.965Z,94.42
2018-03-28T09:54:29.963Z,94.22
2018-03-28T09:55:29.959Z,94.18
2018-03-28T09:56:29.955Z,93.41
2018-03-28T09:57:29.950Z,93.60
2018-03-28T09:58:29.951Z,93.70
2018-03-28T09:59:29.943Z,93.60
2018-03-28T10:00:29.941Z,93.89
2018-03-28T10:01:29.938Z,93.89
2018-03-28T10:02:29.933Z,94.74
2018-03-28T10:03:29.931Z,93.98
2018-03-28T10:04:29.929Z,93.23
2018-03-28T10:05:29.926Z,93.51
2018-03-28T10:06:29.925Z,93.60
2018-03-28T10:07:29.916Z,93.70
2018-03-28T10:08:29.947Z,94.08
2018-03-28T10:09:29.934Z,93.32
2018-03-28T10:10:29.910Z,94.08
2018-03-28T10:11:29.903Z,93.23
2018-03-28T10:12:29.899Z,93.79
2018-03-28T10:13:29.896Z,93.41
2018-03-28T10:14:29.891Z,93.41
2018-03-28T10:15:29.892Z,93.41
2018-03-28T10:16:29.887Z,93.60
2018-03-28T10:17:29.922Z,93.32
2018-03-28T10:18:29.881Z,93.60
2018-03-28T10:19:29.875Z,93.60
2018-03-28T10:20:29.870Z,93.32
2018-03-28T10:21:29.870Z,93.23
2018-03-28T10:22:29.866Z,93.23
2018-03-28T10:23:29.938Z,93.70
2018-03-28T10:24:29.859Z,93.79
2018-03-28T10:25:29.856Z,93.41
2018-03-28T10:26:29.850Z,93.60
2018-03-28T10:27:29.859Z,93.23
2018-03-28T10:28:29.842Z,93.60
2018-03-28T10:29:29.839Z,93.32
2018-03-28T10:30:29.837Z,93.37
2018-03-28T10:31:29.831Z,94.22
2018-03-28T10:32:29.843Z,93.84
2018-03-28T10:33:29.826Z,93.46
2018-03-28T10:34:29.823Z,93.65
2018-03-28T10:35:29.818Z,92.99
2018-03-28T10:36:29.812Z,93.46
2018-03-28T10:37:29.811Z,94.13
2018-03-28T10:38:29.845Z,93.84
2018-03-28T10:39:29.804Z,94.22
2018-03-28T10:40:29.838Z,95.03
2018-03-28T10:41:29.801Z,93.89
2018-03-28T10:42:29.793Z,94.93
2018-03-28T10:43:29.792Z,93.60
2018-03-28T10:44:29.789Z,94.17
2018-03-28T10:45:29.789Z,94.32
2018-03-28T10:46:29.785Z,94.98
2018-03-28T10:47:29.787Z,94.37
2018-03-28T10:48:29.808Z,93.70
2018-03-28T10:49:29.777Z,95.12
2018-03-28T10:50:29.775Z,94.27
2018-03-28T10:51:29.776Z,93.89
2018-03-28T10:52:29.769Z,93.70
2018-03-28T10:53:29.765Z,94.08
2018-03-28T10:54:29.770Z,94.08
2018-03-28T10:55:29.766Z,94.74
2018-03-28T10:56:29.759Z,94.56
2018-03-28T10:57:29.754Z,94.60
2018-03-28T10:58:29.754Z,95.08
2018-03-28T10:59:29.751Z,94.32
2018-03-28T11:00:31.397Z,94.98
2018-03-28T11:01:29.746Z,94.98
2018-03-28T11:02:29.735Z,94.17
2018-03-28T11:03:29.742Z,95.22
2018-03-28T11:04:29.791Z,95.22
2018-03-28T11:05:29.737Z,94.56
2018-03-28T11:06:29.739Z,96.17
2018-03-28T11:07:29.738Z,95.79
2018-03-28T11:08:29.732Z,94.84
2018-03-28T11:09:29.730Z,95.70
2018-03-28T11:10:29.741Z,94.74
2018-03-28T11:11:29.727Z,95.32
2018-03-28T11:12:29.729Z,96.61
2018-03-28T11:13:29.733Z,95.56
2018-03-28T11:14:29.726Z,95.75
2018-03-28T11:15:29.722Z,95.08
2018-03-28T11:16:29.730Z,94.60
2018-03-28T11:17:29.721Z,94.79
2018-03-28T11:18:29.735Z,96.41
2018-03-28T11:19:29.715Z,95.27
2018-03-28T11:20:29.782Z,95.56
2018-03-28T11:21:29.715Z,96.22
2018-03-28T11:22:29.711Z,94.98
2018-03-28T11:23:29.731Z,94.93
2018-03-28T11:24:29.711Z,94.93
2018-03-28T11:25:29.712Z,95.70
2018-03-28T11:26:29.710Z,95.32
2018-03-28T11:27:29.709Z,95.89
2018-03-28T11:28:29.707Z,94.93
2018-03-28T11:29:29.708Z,95.03
2018-03-28T11:30:29.708Z,95.12
2018-03-28T11:31:29.708Z,94.74
2018-03-28T11:32:29.710Z,94.60
2018-03-28T11:33:29.769Z,95.17
2018-03-28T11:34:29.707Z,95.46
2018-03-28T11:35:29.709Z,95.70
2018-03-28T11:36:29.706Z,95.27
2018-03-28T11:37:29.706Z,95.27
2018-03-28T11:38:29.708Z,94.79
2018-03-28T11:39:29.706Z,94.74
2018-03-28T11:40:29.707Z,94.07
2018-03-28T11:41:29.707Z,94.41
2018-03-28T11:42:29.709Z,93.84
2018-03-28T11:43:29.711Z,93.55
2018-03-28T11:44:29.709Z,93.60
2018-03-28T11:45:29.715Z,93.98
2018-03-28T11:46:29.717Z,93.98
2018-03-28T11:47:29.719Z,94.02
2018-03-28T11:48:29.719Z,93.35
2018-03-28T11:49:29.714Z,93.40
2018-03-28T11:50:29.723Z,93.50
2018-03-28T11:51:29.727Z,92.35
2018-03-28T11:52:29.739Z,90.34
2018-03-28T11:53:29.730Z,91.49
2018-03-28T11:54:29.734Z,91.92
2018-03-28T11:55:29.735Z,91.63
2018-03-28T11:56:30.718Z,90.09
2018-03-28T11:57:29.746Z,90.86
2018-03-28T11:58:29.762Z,90.39
2018-03-28T11:59:29.755Z,90.91
2018-03-28T12:00:29.780Z,89.76
2018-03-28T12:01:29.758Z,91.16
2018-03-28T12:02:29.773Z,92.25
2018-03-28T12:03:29.770Z,91.49
2018-03-28T12:04:29.771Z,91.97
2018-03-28T12:05:29.793Z,93.21
2018-03-28T12:06:29.799Z,91.97
2018-03-28T12:07:29.785Z,92.88
2018-03-28T12:08:29.785Z,92.88
2018-03-28T12:09:29.787Z,92.11
2018-03-28T12:10:29.794Z,93.16
2018-03-28T12:11:29.793Z,92.07
2018-03-28T12:12:29.797Z,92.74
2018-03-28T12:13:29.794Z,92.97
2018-03-28T12:14:29.803Z,93.65
2018-03-28T12:15:29.802Z,92.93
2018-03-28T12:16:29.806Z,92.35
2018-03-28T12:17:29.808Z,93.12
2018-03-28T12:18:29.808Z,92.45
2018-03-28T12:19:29.807Z,92.64
2018-03-28T12:20:29.801Z,92.64
2018-03-28T12:21:29.808Z,91.97
2018-03-28T12:22:29.814Z,92.25
2018-03-28T12:23:29.820Z,92.74
2018-03-28T12:24:29.819Z,91.63
2018-03-28T12:25:29.825Z,92.69
2018-03-28T12:26:29.825Z,92.21
2018-03-28T12:27:29.830Z,91.63
2018-03-28T12:28:29.833Z,92.21
2018-03-28T12:29:29.850Z,91.83
2018-03-28T12:30:29.857Z,91.83
2018-03-28T12:31:29.836Z,92.25
2018-03-28T12:32:29.834Z,91.59
2018-03-28T12:33:29.837Z,92.25
2018-03-28T12:34:29.838Z,93.02
2018-03-28T12:35:29.841Z,93.12
2018-03-28T12:36:29.847Z,92.21
2018-03-28T12:37:29.842Z,92.21
2018-03-28T12:38:29.847Z,91.93
2018-03-28T12:39:29.845Z,92.07
2018-03-28T12:40:29.848Z,93.21
2018-03-28T12:41:29.843Z,92.02
2018-03-28T12:42:29.851Z,92.40
2018-03-28T12:43:29.850Z,92.88
2018-03-28T12:44:29.847Z,92.93
2018-03-28T12:45:29.864Z,91.88
2018-03-28T12:46:29.850Z,92.83
2018-03-28T12:47:29.851Z,93.21
2018-03-28T12:48:29.851Z,92.74
2018-03-28T12:49:29.860Z,92.83
2018-03-28T12:50:29.854Z,93.41
2018-03-28T12:51:29.856Z,93.50
2018-03-28T12:52:29.852Z,93.21
2018-03-28T12:53:29.850Z,93.65
2018-03-28T12:54:29.854Z,92.97
2018-03-28T12:55:29.885Z,93.17
2018-03-28T12:56:29.849Z,93.65
2018-03-28T12:57:29.848Z,94.41
2018-03-28T12:58:29.850Z,93.36
2018-03-28T12:59:29.854Z,93.07
2018-03-28T13:00:29.844Z,93.26
2018-03-28T13:01:29.845Z,93.55
2018-03-28T13:02:29.847Z,94.03
2018-03-28T13:03:29.846Z,93.79
2018-03-28T13:04:29.844Z,92.88
2018-03-28T13:05:29.847Z,94.31
2018-03-28T13:06:29.846Z,93.07
2018-03-28T13:07:29.841Z,93.41
2018-03-28T13:08:29.845Z,92.74
2018-03-28T13:09:29.842Z,93.70
2018-03-28T13:10:29.826Z,93.22
2018-03-28T13:11:29.830Z,92.60
2018-03-28T13:12:29.836Z,95.17
2018-03-28T13:13:29.835Z,92.22
2018-03-28T13:14:29.831Z,94.12
2018-03-28T13:15:29.830Z,94.22
2018-03-28T13:16:29.826Z,92.60
2018-03-28T13:17:29.825Z,94.08
2018-03-28T13:18:29.816Z,93.60
2018-03-28T13:19:29.837Z,93.70
2018-03-28T13:20:29.818Z,93.98
2018-03-28T13:21:29.819Z,94.41
2018-03-28T13:22:29.816Z,92.88
2018-03-28T13:23:29.815Z,93.84
2018-03-28T13:24:29.813Z,93.84
2018-03-28T13:25:29.813Z,93.55
2018-03-28T13:26:29.842Z,93.46
2018-03-28T13:27:29.805Z,93.08
2018-03-28T13:28:29.803Z,93.17
2018-03-28T13:29:29.808Z,94.32